Hlavní strana
METAR-TAF:

METAR-TAF

Letiště :

Parma, Itálie

zeměpisná šířka: 44-49-17N, zeměpisná délka: 010-17-41E, výška: 50 m

Aktuální stav počasí

Zpráva byla vytvořena před 1 hodinou a 18 minutami, v 06:50 UTC
Západoseverozápadní vítr 3 kt, proměnlivý mezi západním a severoseverozápadním
Teplota 24°C
Vlhkost vzduchu 74%
Tlak 1015 hPa
Viditelnost 10 km a více
Žádná oblačnost pod 1500 m, nevyskytují se cumulonimby.

METAR: LIMP 190650Z 30003KT 260V340 CAVOK 24/19 Q1015

Čas: 10:08 (08:08 UTC)

Předpověď počasí

Zpráva byla vytvořena před 3 hodinami a 8 minutami, v 05:00 UTC
Předpověď platná od 19 v 06 UTC do 20 v 06 UTC
vítr z různých směrů 5 kt
Viditelnost 10 km a více
Žádná oblačnost pod 1500 m, nevyskytují se cumulonimby.

TAF: LIMP 190500Z 1906/2006 VRB05KT CAVOK

Stav a předpovědi počasí z více než 4 000 letišť (zprávy METAR a TAF).

Červené a žluté tečky na mapě představují dostupné meteorologické stanice.

Když kurzor umístíte na tečku, zobrazí se název stanice.

Pak kliknutím zobrazíte stav a předpověď počasí.

Chcete-li změnit mapu, kliknutím na zelené tlačítko se znaménkem +mapu přiblížíte, kliknutím na zelené tlačítko se znaménkem – mapu oddálíte a kliknutím na zelené šipky přejdete na sousední mapy.


METAR-TAF: